sensor_id;sensor_type;location;lat;lon;timestamp;pressure;altitude;pressure_sealevel;temperature;humidity
70103;BME280;57470;50.034;15.256;2022-08-21T00:00:28;99193.94;;;17.71;100.00
70103;BME280;57470;50.034;15.256;2022-08-21T00:02:56;99199.63;;;17.68;100.00
70103;BME280;57470;50.034;15.256;2022-08-21T00:05:23;99186.84;;;17.70;100.00
70103;BME280;57470;50.034;15.256;2022-08-21T00:07:49;99178.25;;;17.66;100.00
70103;BME280;57470;50.034;15.256;2022-08-21T00:10:15;99178.41;;;17.47;100.00
70103;BME280;57470;50.034;15.256;2022-08-21T00:12:41;99186.31;;;17.48;100.00
70103;BME280;57470;50.034;15.256;2022-08-21T00:15:08;99184.78;;;17.46;100.00
70103;BME280;57470;50.034;15.256;2022-08-21T00:17:36;99185.78;;;17.45;100.00
70103;BME280;57470;50.034;15.256;2022-08-21T00:20:05;99185.84;;;17.53;100.00
70103;BME280;57470;50.034;15.256;2022-08-21T00:22:31;99187.31;;;17.47;100.00
70103;BME280;57470;50.034;15.256;2022-08-21T00:24:56;99177.09;;;17.51;100.00
70103;BME280;57470;50.034;15.256;2022-08-21T00:27:21;99167.03;;;17.53;100.00
70103;BME280;57470;50.034;15.256;2022-08-21T00:29:47;99175.34;;;17.42;100.00
70103;BME280;57470;50.034;15.256;2022-08-21T00:32:12;99174.72;;;17.48;100.00
70103;BME280;57470;50.034;15.256;2022-08-21T00:34:38;99171.19;;;17.30;100.00
70103;BME280;57470;50.034;15.256;2022-08-21T00:37:03;99167.56;;;17.39;100.00
70103;BME280;57470;50.034;15.256;2022-08-21T00:39:29;99166.88;;;17.37;100.00
70103;BME280;57470;50.034;15.256;2022-08-21T00:41:55;99168.13;;;17.42;100.00
70103;BME280;57470;50.034;15.256;2022-08-21T00:44:20;99168.91;;;17.35;100.00
70103;BME280;57470;50.034;15.256;2022-08-21T00:46:46;99169.84;;;17.25;100.00
70103;BME280;57470;50.034;15.256;2022-08-21T00:49:12;99171.25;;;17.38;100.00
70103;BME280;57470;50.034;15.256;2022-08-21T00:51:47;99167.50;;;17.31;100.00
70103;BME280;57470;50.034;15.256;2022-08-21T00:54:14;99169.34;;;17.30;100.00
70103;BME280;57470;50.034;15.256;2022-08-21T00:56:41;99168.13;;;17.42;100.00
70103;BME280;57470;50.034;15.256;2022-08-21T00:59:07;99159.22;;;17.42;100.00
70103;BME280;57470;50.034;15.256;2022-08-21T01:01:33;99157.47;;;17.33;100.00
70103;BME280;57470;50.034;15.256;2022-08-21T01:03:58;99157.75;;;17.30;100.00
70103;BME280;57470;50.034;15.256;2022-08-21T01:06:24;99156.06;;;17.29;100.00
70103;BME280;57470;50.034;15.256;2022-08-21T01:08:49;99161.84;;;17.34;100.00
70103;BME280;57470;50.034;15.256;2022-08-21T01:11:16;99159.44;;;17.31;100.00
70103;BME280;57470;50.034;15.256;2022-08-21T01:13:42;99165.88;;;17.38;100.00
70103;BME280;57470;50.034;15.256;2022-08-21T01:16:12;99151.16;;;17.42;100.00
70103;BME280;57470;50.034;15.256;2022-08-21T01:18:38;99145.31;;;17.29;100.00
70103;BME280;57470;50.034;15.256;2022-08-21T01:23:46;99147.47;;;17.43;100.00
70103;BME280;57470;50.034;15.256;2022-08-21T01:26:13;99150.31;;;17.41;100.00
70103;BME280;57470;50.034;15.256;2022-08-21T01:28:48;99149.16;;;17.44;100.00
70103;BME280;57470;50.034;15.256;2022-08-21T01:31:15;99142.66;;;17.54;100.00
70103;BME280;57470;50.034;15.256;2022-08-21T01:33:44;99147.81;;;17.48;100.00
70103;BME280;57470;50.034;15.256;2022-08-21T01:36:10;99148.22;;;17.53;100.00
70103;BME280;57470;50.034;15.256;2022-08-21T01:38:36;99143.84;;;17.52;100.00
70103;BME280;57470;50.034;15.256;2022-08-21T01:41:02;99148.72;;;17.56;100.00
70103;BME280;57470;50.034;15.256;2022-08-21T01:43:29;99142.44;;;17.66;100.00
70103;BME280;57470;50.034;15.256;2022-08-21T01:45:55;99137.13;;;17.56;100.00
70103;BME280;57470;50.034;15.256;2022-08-21T01:48:21;99139.34;;;17.60;100.00
70103;BME280;57470;50.034;15.256;2022-08-21T01:50:48;99137.28;;;17.54;100.00
70103;BME280;57470;50.034;15.256;2022-08-21T01:53:14;99133.97;;;17.60;100.00
70103;BME280;57470;50.034;15.256;2022-08-21T01:55:42;99134.38;;;17.66;100.00
70103;BME280;57470;50.034;15.256;2022-08-21T01:58:08;99129.84;;;17.66;100.00
70103;BME280;57470;50.034;15.256;2022-08-21T02:00:33;99132.13;;;17.61;100.00
70103;BME280;57470;50.034;15.256;2022-08-21T02:02:58;99121.69;;;17.58;100.00
70103;BME280;57470;50.034;15.256;2022-08-21T02:05:25;99133.97;;;17.60;100.00
70103;BME280;57470;50.034;15.256;2022-08-21T02:07:52;99124.44;;;17.66;100.00
70103;BME280;57470;50.034;15.256;2022-08-21T02:10:24;99125.06;;;17.60;100.00
70103;BME280;57470;50.034;15.256;2022-08-21T02:12:52;99116.00;;;17.61;100.00
70103;BME280;57470;50.034;15.256;2022-08-21T02:15:17;99125.16;;;17.50;100.00
70103;BME280;57470;50.034;15.256;2022-08-21T02:17:52;99122.97;;;17.54;100.00
70103;BME280;57470;50.034;15.256;2022-08-21T02:20:28;99123.66;;;17.74;100.00
70103;BME280;57470;50.034;15.256;2022-08-21T02:22:54;99124.28;;;17.68;100.00
70103;BME280;57470;50.034;15.256;2022-08-21T02:25:21;99118.75;;;17.69;100.00
70103;BME280;57470;50.034;15.256;2022-08-21T02:27:47;99121.81;;;17.74;100.00
70103;BME280;57470;50.034;15.256;2022-08-21T02:30:16;99117.44;;;17.73;100.00
70103;BME280;57470;50.034;15.256;2022-08-21T02:32:42;99119.28;;;17.73;100.00
70103;BME280;57470;50.034;15.256;2022-08-21T02:35:09;99121.44;;;17.69;100.00
70103;BME280;57470;50.034;15.256;2022-08-21T02:37:52;99116.81;;;17.79;100.00
70103;BME280;57470;50.034;15.256;2022-08-21T02:40:20;99119.47;;;17.71;100.00
70103;BME280;57470;50.034;15.256;2022-08-21T02:42:46;99123.44;;;17.67;100.00
70103;BME280;57470;50.034;15.256;2022-08-21T02:45:13;99126.84;;;17.69;100.00
70103;BME280;57470;50.034;15.256;2022-08-21T02:47:39;99122.38;;;17.60;100.00
70103;BME280;57470;50.034;15.256;2022-08-21T02:50:07;99121.66;;;17.76;100.00
70103;BME280;57470;50.034;15.256;2022-08-21T02:52:33;99117.38;;;17.65;100.00
70103;BME280;57470;50.034;15.256;2022-08-21T02:54:59;99110.50;;;17.63;100.00
70103;BME280;57470;50.034;15.256;2022-08-21T02:57:24;99112.53;;;17.69;100.00
70103;BME280;57470;50.034;15.256;2022-08-21T02:59:50;99110.50;;;17.63;100.00
70103;BME280;57470;50.034;15.256;2022-08-21T03:02:15;99116.69;;;17.63;100.00
70103;BME280;57470;50.034;15.256;2022-08-21T03:04:41;99111.84;;;17.67;100.00
70103;BME280;57470;50.034;15.256;2022-08-21T03:07:06;99112.69;;;17.67;100.00
70103;BME280;57470;50.034;15.256;2022-08-21T03:09:31;99116.13;;;17.77;100.00
70103;BME280;57470;50.034;15.256;2022-08-21T03:11:57;99117.06;;;17.68;100.00
70103;BME280;57470;50.034;15.256;2022-08-21T03:14:22;99113.03;;;17.72;100.00
70103;BME280;57470;50.034;15.256;2022-08-21T03:16:48;99119.06;;;17.66;100.00
70103;BME280;57470;50.034;15.256;2022-08-21T03:19:13;99121.25;;;17.63;100.00
70103;BME280;57470;50.034;15.256;2022-08-21T03:21:38;99130.69;;;17.67;100.00
70103;BME280;57470;50.034;15.256;2022-08-21T03:24:04;99121.06;;;17.64;100.00
70103;BME280;57470;50.034;15.256;2022-08-21T03:26:30;99118.75;;;17.69;100.00
70103;BME280;57470;50.034;15.256;2022-08-21T03:28:55;99120.13;;;17.73;100.00
70103;BME280;57470;50.034;15.256;2022-08-21T03:31:23;99121.44;;;17.69;100.00
70103;BME280;57470;50.034;15.256;2022-08-21T03:33:48;99130.38;;;17.70;100.00
70103;BME280;57470;50.034;15.256;2022-08-21T03:36:15;99129.97;;;17.65;100.00
70103;BME280;57470;50.034;15.256;2022-08-21T03:38:40;99124.84;;;17.71;100.00
70103;BME280;57470;50.034;15.256;2022-08-21T03:41:06;99129.13;;;17.64;100.00
70103;BME280;57470;50.034;15.256;2022-08-21T03:43:32;99129.31;;;17.63;100.00
70103;BME280;57470;50.034;15.256;2022-08-21T03:46:00;99131.81;;;17.64;100.00
70103;BME280;57470;50.034;15.256;2022-08-21T03:48:25;99132.38;;;17.68;100.00
70103;BME280;57470;50.034;15.256;2022-08-21T03:50:52;99133.91;;;17.70;100.00
70103;BME280;57470;50.034;15.256;2022-08-21T03:53:17;99137.38;;;17.63;100.00
70103;BME280;57470;50.034;15.256;2022-08-21T03:55:44;99137.25;;;17.72;100.00
70103;BME280;57470;50.034;15.256;2022-08-21T03:58:10;99128.13;;;17.65;100.00
70103;BME280;57470;50.034;15.256;2022-08-21T04:00:36;99132.22;;;17.69;100.00
70103;BME280;57470;50.034;15.256;2022-08-21T04:03:02;99145.28;;;17.64;100.00
70103;BME280;57470;50.034;15.256;2022-08-21T04:05:27;99136.91;;;17.67;100.00
70103;BME280;57470;50.034;15.256;2022-08-21T04:08:02;99140.28;;;17.69;100.00
70103;BME280;57470;50.034;15.256;2022-08-21T04:10:30;99154.03;;;17.66;100.00
70103;BME280;57470;50.034;15.256;2022-08-21T04:12:56;99145.50;;;17.71;100.00
70103;BME280;57470;50.034;15.256;2022-08-21T04:15:23;99148.72;;;17.74;100.00
70103;BME280;57470;50.034;15.256;2022-08-21T04:17:49;99157.13;;;17.71;100.00
70103;BME280;57470;50.034;15.256;2022-08-21T04:20:16;99156.16;;;17.80;100.00
70103;BME280;57470;50.034;15.256;2022-08-21T04:22:41;99149.41;;;17.76;100.00
70103;BME280;57470;50.034;15.256;2022-08-21T04:25:07;99152.78;;;17.78;100.00
70103;BME280;57470;50.034;15.256;2022-08-21T04:27:34;99154.13;;;17.82;100.00
70103;BME280;57470;50.034;15.256;2022-08-21T04:29:59;99154.63;;;17.78;100.00
70103;BME280;57470;50.034;15.256;2022-08-21T04:32:26;99156.78;;;17.74;100.00
70103;BME280;57470;50.034;15.256;2022-08-21T04:35:01;99157.78;;;17.73;100.00
70103;BME280;57470;50.034;15.256;2022-08-21T04:37:29;99163.78;;;17.67;100.00
70103;BME280;57470;50.034;15.256;2022-08-21T04:39:54;99161.47;;;17.72;100.00
70103;BME280;57470;50.034;15.256;2022-08-21T04:42:23;99163.66;;;17.69;100.00
70103;BME280;57470;50.034;15.256;2022-08-21T04:44:49;99152.03;;;17.68;100.00
70103;BME280;57470;50.034;15.256;2022-08-21T04:47:14;99166.13;;;17.62;100.00
70103;BME280;57470;50.034;15.256;2022-08-21T04:49:42;99157.03;;;17.63;100.00
70103;BME280;57470;50.034;15.256;2022-08-21T04:52:08;99165.78;;;17.65;100.00
70103;BME280;57470;50.034;15.256;2022-08-21T04:54:34;99172.72;;;17.68;100.00
70103;BME280;57470;50.034;15.256;2022-08-21T04:57:02;99162.00;;;17.76;100.00
70103;BME280;57470;50.034;15.256;2022-08-21T04:59:41;99168.06;;;17.78;100.00
70103;BME280;57470;50.034;15.256;2022-08-21T05:02:08;99172.75;;;17.76;100.00
70103;BME280;57470;50.034;15.256;2022-08-21T05:04:37;99173.25;;;17.71;100.00
70103;BME280;57470;50.034;15.256;2022-08-21T05:07:09;99177.84;;;17.79;100.00
70103;BME280;57470;50.034;15.256;2022-08-21T05:09:36;99186.56;;;17.81;100.00
70103;BME280;57470;50.034;15.256;2022-08-21T05:12:03;99179.28;;;17.73;100.00
70103;BME280;57470;50.034;15.256;2022-08-21T05:14:28;99188.44;;;17.80;100.00
70103;BME280;57470;50.034;15.256;2022-08-21T05:16:54;99196.72;;;17.87;100.00
70103;BME280;57470;50.034;15.256;2022-08-21T05:19:19;99193.13;;;17.78;100.00
70103;BME280;57470;50.034;15.256;2022-08-21T05:21:46;99187.69;;;17.70;100.00
70103;BME280;57470;50.034;15.256;2022-08-21T05:24:13;99192.28;;;17.78;100.00
70103;BME280;57470;50.034;15.256;2022-08-21T05:26:39;99193.75;;;17.72;100.00
70103;BME280;57470;50.034;15.256;2022-08-21T05:29:04;99197.66;;;17.78;100.00
70103;BME280;57470;50.034;15.256;2022-08-21T05:31:30;99195.81;;;17.78;100.00
70103;BME280;57470;50.034;15.256;2022-08-21T05:33:55;99201.56;;;17.83;100.00
70103;BME280;57470;50.034;15.256;2022-08-21T05:36:21;99191.28;;;17.79;100.00
70103;BME280;57470;50.034;15.256;2022-08-21T05:38:47;99192.75;;;17.73;100.00
70103;BME280;57470;50.034;15.256;2022-08-21T05:41:12;99185.75;;;17.80;100.00
70103;BME280;57470;50.034;15.256;2022-08-21T05:43:38;99192.44;;;17.76;100.00
70103;BME280;57470;50.034;15.256;2022-08-21T05:46:04;99193.97;;;17.79;100.00
70103;BME280;57470;50.034;15.256;2022-08-21T05:48:30;99199.97;;;17.73;100.00
70103;BME280;57470;50.034;15.256;2022-08-21T05:50:56;99203.84;;;17.70;100.00
70103;BME280;57470;50.034;15.256;2022-08-21T05:53:23;99209.44;;;17.77;100.00
70103;BME280;57470;50.034;15.256;2022-08-21T05:55:49;99209.59;;;17.75;100.00
70103;BME280;57470;50.034;15.256;2022-08-21T05:58:16;99212.06;;;17.69;100.00
70103;BME280;57470;50.034;15.256;2022-08-21T06:00:44;99205.84;;;17.68;100.00
70103;BME280;57470;50.034;15.256;2022-08-21T06:03:16;99216.09;;;17.73;100.00
70103;BME280;57470;50.034;15.256;2022-08-21T06:05:42;99203.84;;;17.70;100.00
70103;BME280;57470;50.034;15.256;2022-08-21T06:08:08;99210.38;;;17.68;100.00
70103;BME280;57470;50.034;15.256;2022-08-21T06:10:33;99215.13;;;17.74;100.00
70103;BME280;57470;50.034;15.256;2022-08-21T06:12:59;99217.34;;;17.78;100.00
70103;BME280;57470;50.034;15.256;2022-08-21T06:15:26;99222.28;;;17.65;100.00
70103;BME280;57470;50.034;15.256;2022-08-21T06:17:52;99223.50;;;17.71;100.00
70103;BME280;57470;50.034;15.256;2022-08-21T06:20:18;99223.47;;;17.63;100.00
70103;BME280;57470;50.034;15.256;2022-08-21T06:22:43;99231.41;;;17.72;100.00
70103;BME280;57470;50.034;15.256;2022-08-21T06:25:09;99238.81;;;17.70;100.00
70103;BME280;57470;50.034;15.256;2022-08-21T06:27:35;99237.47;;;17.56;100.00
70103;BME280;57470;50.034;15.256;2022-08-21T06:30:00;99244.50;;;17.67;100.00
70103;BME280;57470;50.034;15.256;2022-08-21T06:32:25;99235.56;;;17.67;100.00
70103;BME280;57470;50.034;15.256;2022-08-21T06:34:51;99242.00;;;17.56;100.00
70103;BME280;57470;50.034;15.256;2022-08-21T06:37:16;99248.88;;;17.68;100.00
70103;BME280;57470;50.034;15.256;2022-08-21T06:39:42;99235.56;;;17.67;100.00
70103;BME280;57470;50.034;15.256;2022-08-21T06:42:13;99240.72;;;17.60;100.00
70103;BME280;57470;50.034;15.256;2022-08-21T06:44:39;99249.78;;;17.59;100.00
70103;BME280;57470;50.034;15.256;2022-08-21T06:47:04;99244.56;;;17.75;100.00
70103;BME280;57470;50.034;15.256;2022-08-21T06:49:29;99256.25;;;17.66;100.00
70103;BME280;57470;50.034;15.256;2022-08-21T06:51:55;99263.09;;;17.78;100.00
70103;BME280;57470;50.034;15.256;2022-08-21T06:54:20;99265.84;;;17.86;100.00
70103;BME280;57470;50.034;15.256;2022-08-21T06:56:46;99269.25;;;17.71;100.00
70103;BME280;57470;50.034;15.256;2022-08-21T06:59:11;99268.03;;;17.91;100.00
70103;BME280;57470;50.034;15.256;2022-08-21T07:01:36;99269.53;;;17.68;100.00
70103;BME280;57470;50.034;15.256;2022-08-21T07:04:02;99277.97;;;17.73;100.00
70103;BME280;57470;50.034;15.256;2022-08-21T07:06:27;99274.78;;;17.69;100.00
70103;BME280;57470;50.034;15.256;2022-08-21T07:08:53;99271.38;;;17.67;100.00
70103;BME280;57470;50.034;15.256;2022-08-21T07:11:22;99270.69;;;17.65;100.00
70103;BME280;57470;50.034;15.256;2022-08-21T07:13:48;99272.00;;;17.79;100.00
70103;BME280;57470;50.034;15.256;2022-08-21T07:16:16;99277.06;;;17.82;100.00
70103;BME280;57470;50.034;15.256;2022-08-21T07:18:41;99275.91;;;17.84;100.00
70103;BME280;57470;50.034;15.256;2022-08-21T07:21:07;99278.28;;;17.87;100.00
70103;BME280;57470;50.034;15.256;2022-08-21T07:23:37;99283.34;;;17.90;100.00
70103;BME280;57470;50.034;15.256;2022-08-21T07:26:03;99289.81;;;17.97;100.00
70103;BME280;57470;50.034;15.256;2022-08-21T07:28:29;99278.94;;;18.07;100.00
70103;BME280;57470;50.034;15.256;2022-08-21T07:30:57;99284.44;;;18.23;99.51
70103;BME280;57470;50.034;15.256;2022-08-21T07:33:25;99276.56;;;18.30;99.87
70103;BME280;57470;50.034;15.256;2022-08-21T07:35:52;99272.38;;;18.35;99.38
70103;BME280;57470;50.034;15.256;2022-08-21T07:38:17;99275.78;;;18.37;98.93
70103;BME280;57470;50.034;15.256;2022-08-21T07:40:44;99282.00;;;18.38;99.34
70103;BME280;57470;50.034;15.256;2022-08-21T07:43:10;99282.00;;;18.38;99.11
70103;BME280;57470;50.034;15.256;2022-08-21T07:45:36;99281.94;;;18.30;100.00
70103;BME280;57470;50.034;15.256;2022-08-21T07:48:02;99282.03;;;18.46;99.37
70103;BME280;57470;50.034;15.256;2022-08-21T07:50:27;99288.22;;;18.38;99.40
70103;BME280;57470;50.034;15.256;2022-08-21T07:52:53;99279.31;;;18.38;99.37
70103;BME280;57470;50.034;15.256;2022-08-21T07:55:19;99270.31;;;18.55;99.11
70103;BME280;57470;50.034;15.256;2022-08-21T07:57:45;99275.41;;;18.58;98.78
70103;BME280;57470;50.034;15.256;2022-08-21T08:00:15;99279.06;;;18.83;99.58
70103;BME280;57470;50.034;15.256;2022-08-21T08:02:45;99277.50;;;18.72;98.90
70103;BME280;57470;50.034;15.256;2022-08-21T08:05:11;99281.41;;;18.78;98.43
70103;BME280;57470;50.034;15.256;2022-08-21T08:07:37;99272.47;;;18.78;98.73
70103;BME280;57470;50.034;15.256;2022-08-21T08:10:05;99277.38;;;18.82;99.19
70103;BME280;57470;50.034;15.256;2022-08-21T08:12:33;99284.56;;;18.73;98.75
70103;BME280;57470;50.034;15.256;2022-08-21T08:14:59;99274.06;;;18.62;99.66
70103;BME280;57470;50.034;15.256;2022-08-21T08:17:27;99275.31;;;18.68;99.76
70103;BME280;57470;50.034;15.256;2022-08-21T08:19:53;99281.72;;;18.75;99.68
70103;BME280;57470;50.034;15.256;2022-08-21T08:22:21;99279.34;;;18.46;99.27
70103;BME280;57470;50.034;15.256;2022-08-21T08:24:50;99279.00;;;18.41;99.84
70103;BME280;57470;50.034;15.256;2022-08-21T08:27:16;99277.38;;;18.56;99.49
70103;BME280;57470;50.034;15.256;2022-08-21T08:29:42;99267.94;;;18.52;99.96
70103;BME280;57470;50.034;15.256;2022-08-21T08:32:08;99265.75;;;18.82;99.94
70103;BME280;57470;50.034;15.256;2022-08-21T08:34:35;99273.97;;;18.80;99.68
70103;BME280;57470;50.034;15.256;2022-08-21T08:37:01;99273.00;;;18.89;100.00
70103;BME280;57470;50.034;15.256;2022-08-21T08:39:26;99273.38;;;18.94;99.90
70103;BME280;57470;50.034;15.256;2022-08-21T08:42:21;99280.66;;;19.02;99.09
70103;BME280;57470;50.034;15.256;2022-08-21T08:44:50;99276.56;;;18.98;98.64
70103;BME280;57470;50.034;15.256;2022-08-21T08:47:23;99283.16;;;18.95;99.05
70103;BME280;57470;50.034;15.256;2022-08-21T08:49:55;99270.72;;;19.10;100.00
70103;BME280;57470;50.034;15.256;2022-08-21T08:52:33;99275.31;;;19.26;99.50
70103;BME280;57470;50.034;15.256;2022-08-21T08:57:27;99289.81;;;19.25;98.35
70103;BME280;57470;50.034;15.256;2022-08-21T08:59:55;99276.00;;;19.28;99.00
70103;BME280;57470;50.034;15.256;2022-08-21T09:02:22;99277.53;;;19.31;98.25
70103;BME280;57470;50.034;15.256;2022-08-21T09:04:49;99279.53;;;19.29;97.76
70103;BME280;57470;50.034;15.256;2022-08-21T09:07:53;99283.78;;;19.31;97.64
70103;BME280;57470;50.034;15.256;2022-08-21T09:11:11;99279.38;;;19.22;98.64
70103;BME280;57470;50.034;15.256;2022-08-21T09:13:43;99277.88;;;19.36;98.66
70103;BME280;57470;50.034;15.256;2022-08-21T09:16:29;99288.16;;;19.32;97.00
70103;BME280;57470;50.034;15.256;2022-08-21T09:21:53;99286.53;;;19.47;96.86
70103;BME280;57470;50.034;15.256;2022-08-21T09:27:12;99279.63;;;19.61;97.82
70103;BME280;57470;50.034;15.256;2022-08-21T09:29:44;99276.91;;;19.53;97.75
70103;BME280;57470;50.034;15.256;2022-08-21T09:32:23;99284.16;;;19.53;97.18
70103;BME280;57470;50.034;15.256;2022-08-21T09:35:01;99277.59;;;19.79;97.56
70103;BME280;57470;50.034;15.256;2022-08-21T09:37:30;99272.03;;;19.81;97.01
70103;BME280;57470;50.034;15.256;2022-08-21T09:39:58;99276.44;;;19.82;97.35
70103;BME280;57470;50.034;15.256;2022-08-21T09:42:31;99276.09;;;19.85;96.91
70103;BME280;57470;50.034;15.256;2022-08-21T09:45:17;99277.28;;;19.99;97.03
70103;BME280;57470;50.034;15.256;2022-08-21T09:47:43;99281.84;;;19.74;95.85
70103;BME280;57470;50.034;15.256;2022-08-21T09:50:20;99276.41;;;19.98;96.17
70103;BME280;57470;50.034;15.256;2022-08-21T09:52:55;99273.91;;;20.13;95.03
70103;BME280;57470;50.034;15.256;2022-08-21T09:55:49;99270.34;;;20.04;95.24
70103;BME280;57470;50.034;15.256;2022-08-21T09:58:36;99269.66;;;20.10;95.74
70103;BME280;57470;50.034;15.256;2022-08-21T10:01:04;99267.00;;;19.94;95.93
70103;BME280;57470;50.034;15.256;2022-08-21T10:03:30;99263.44;;;20.10;96.46
70103;BME280;57470;50.034;15.256;2022-08-21T10:06:05;99264.75;;;20.14;95.53
70103;BME280;57470;50.034;15.256;2022-08-21T10:08:35;99261.69;;;20.33;95.48
70103;BME280;57470;50.034;15.256;2022-08-21T10:11:14;99267.91;;;20.50;94.77
70103;BME280;57470;50.034;15.256;2022-08-21T10:14:04;99266.84;;;20.67;95.01
70103;BME280;57470;50.034;15.256;2022-08-21T10:16:56;99271.63;;;20.96;94.50
70103;BME280;57470;50.034;15.256;2022-08-21T10:19:46;99266.13;;;21.12;93.47
70103;BME280;57470;50.034;15.256;2022-08-21T10:22:38;99257.38;;;20.71;88.87
70103;BME280;57470;50.034;15.256;2022-08-21T10:30:13;99262.34;;;21.29;90.82
70103;BME280;57470;50.034;15.256;2022-08-21T10:33:06;99263.69;;;21.56;92.85
70103;BME280;57470;50.034;15.256;2022-08-21T10:39:05;99268.69;;;21.67;89.45
70103;BME280;57470;50.034;15.256;2022-08-21T10:42:07;99267.50;;;21.47;87.62
70103;BME280;57470;50.034;15.256;2022-08-21T10:47:30;99268.25;;;21.33;85.16
70103;BME280;57470;50.034;15.256;2022-08-21T10:50:21;99268.53;;;21.46;87.04
70103;BME280;57470;50.034;15.256;2022-08-21T10:52:56;99265.63;;;21.17;84.86
70103;BME280;57470;50.034;15.256;2022-08-21T10:55:50;99260.72;;;21.12;86.64
70103;BME280;57470;50.034;15.256;2022-08-21T10:58:40;99266.19;;;21.04;86.11
70103;BME280;57470;50.034;15.256;2022-08-21T11:01:26;99264.31;;;21.05;85.11
70103;BME280;57470;50.034;15.256;2022-08-21T11:04:20;99260.25;;;21.09;85.50
70103;BME280;57470;50.034;15.256;2022-08-21T11:06:53;99266.97;;;21.21;84.73
70103;BME280;57470;50.034;15.256;2022-08-21T11:09:24;99263.34;;;21.59;84.54
70103;BME280;57470;50.034;15.256;2022-08-21T11:14:54;99264.19;;;21.37;81.33
70103;BME280;57470;50.034;15.256;2022-08-21T11:17:30;99262.38;;;21.98;83.50
70103;BME280;57470;50.034;15.256;2022-08-21T11:23:59;99263.06;;;21.54;81.91
70103;BME280;57470;50.034;15.256;2022-08-21T11:26:44;99256.91;;;21.60;85.09
70103;BME280;57470;50.034;15.256;2022-08-21T11:29:36;99268.09;;;21.80;83.07
70103;BME280;57470;50.034;15.256;2022-08-21T11:38:09;99250.81;;;22.04;81.40
70103;BME280;57470;50.034;15.256;2022-08-21T11:43:45;99258.28;;;22.02;77.44
70103;BME280;57470;50.034;15.256;2022-08-21T11:51:45;99259.16;;;22.17;77.77
70103;BME280;57470;50.034;15.256;2022-08-21T11:54:17;99264.59;;;22.32;75.42
70103;BME280;57470;50.034;15.256;2022-08-21T11:56:50;99259.84;;;22.34;76.02
70103;BME280;57470;50.034;15.256;2022-08-21T11:59:31;99256.81;;;22.14;73.42
70103;BME280;57470;50.034;15.256;2022-08-21T12:01:58;99259.84;;;22.49;74.02
70103;BME280;57470;50.034;15.256;2022-08-21T12:04:32;99258.16;;;22.48;73.94
70103;BME280;57470;50.034;15.256;2022-08-21T12:07:15;99262.56;;;23.07;72.66
70103;BME280;57470;50.034;15.256;2022-08-21T12:09:52;99260.06;;;23.27;71.17
70103;BME280;57470;50.034;15.256;2022-08-21T12:12:33;99262.66;;;22.99;69.58
70103;BME280;57470;50.034;15.256;2022-08-21T12:17:59;99254.00;;;23.46;69.92
70103;BME280;57470;50.034;15.256;2022-08-21T12:20:36;99252.19;;;23.32;67.49
70103;BME280;57470;50.034;15.256;2022-08-21T12:28:24;99251.81;;;22.70;68.76
70103;BME280;57470;50.034;15.256;2022-08-21T12:30:51;99247.53;;;22.90;67.43
70103;BME280;57470;50.034;15.256;2022-08-21T12:33:37;99248.03;;;23.00;66.94
70103;BME280;57470;50.034;15.256;2022-08-21T12:36:15;99249.25;;;23.12;68.45
70103;BME280;57470;50.034;15.256;2022-08-21T12:38:53;99256.13;;;23.30;68.05
70103;BME280;57470;50.034;15.256;2022-08-21T12:41:26;99253.66;;;23.49;65.60
70103;BME280;57470;50.034;15.256;2022-08-21T12:44:02;99258.38;;;23.83;66.52
70103;BME280;57470;50.034;15.256;2022-08-21T12:46:45;99237.81;;;23.96;64.91
70103;BME280;57470;50.034;15.256;2022-08-21T12:49:19;99246.47;;;24.06;63.24
70103;BME280;57470;50.034;15.256;2022-08-21T12:54:43;99250.22;;;23.62;62.01
70103;BME280;57470;50.034;15.256;2022-08-21T12:57:17;99252.13;;;23.47;62.55
70103;BME280;57470;50.034;15.256;2022-08-21T12:59:43;99251.28;;;23.46;61.47
70103;BME280;57470;50.034;15.256;2022-08-21T13:02:18;99245.84;;;23.46;63.48
70103;BME280;57470;50.034;15.256;2022-08-21T13:04:45;99242.94;;;23.27;61.02
70103;BME280;57470;50.034;15.256;2022-08-21T13:07:15;99238.75;;;23.09;61.61
70103;BME280;57470;50.034;15.256;2022-08-21T13:09:51;99244.41;;;23.08;62.33
70103;BME280;57470;50.034;15.256;2022-08-21T13:12:18;99241.22;;;23.04;61.05
70103;BME280;57470;50.034;15.256;2022-08-21T13:14:45;99244.47;;;23.14;62.11
70103;BME280;57470;50.034;15.256;2022-08-21T13:17:14;99235.56;;;23.20;62.11
70103;BME280;57470;50.034;15.256;2022-08-21T13:19:40;99237.88;;;23.60;62.67
70103;BME280;57470;50.034;15.256;2022-08-21T13:22:12;99231.34;;;23.75;61.45
70103;BME280;57470;50.034;15.256;2022-08-21T13:24:38;99233.22;;;23.96;62.17
70103;BME280;57470;50.034;15.256;2022-08-21T13:27:19;99228.31;;;24.13;63.42
70103;BME280;57470;50.034;15.256;2022-08-21T13:29:46;99237.16;;;23.72;61.32
70103;BME280;57470;50.034;15.256;2022-08-21T13:32:22;99230.03;;;23.71;61.87
70103;BME280;57470;50.034;15.256;2022-08-21T13:34:49;99234.81;;;23.48;62.62
70103;BME280;57470;50.034;15.256;2022-08-21T13:37:15;99227.97;;;23.73;62.57
70103;BME280;57470;50.034;15.256;2022-08-21T13:39:40;99236.81;;;23.82;61.55
70103;BME280;57470;50.034;15.256;2022-08-21T13:42:11;99227.97;;;23.94;60.60
70103;BME280;57470;50.034;15.256;2022-08-21T13:44:43;99227.84;;;24.09;60.48
70103;BME280;57470;50.034;15.256;2022-08-21T13:47:11;99229.34;;;24.12;61.27
70103;BME280;57470;50.034;15.256;2022-08-21T13:49:40;99228.19;;;24.00;61.59